sensor_id;sensor_type;location;lat;lon;timestamp;temperature;humidity
78448;SHT31;67742;51.972;5.682;2023-06-14T00:00:08;22.1;35.2
78448;SHT31;67742;51.972;5.682;2023-06-14T00:02:38;22.1;35.6
78448;SHT31;67742;51.972;5.682;2023-06-14T00:05:08;22.1;35.6
78448;SHT31;67742;51.972;5.682;2023-06-14T00:07:39;22.0;35.7
78448;SHT31;67742;51.972;5.682;2023-06-14T00:10:11;22.0;36.0
78448;SHT31;67742;51.972;5.682;2023-06-14T00:12:40;22.0;36.0
78448;SHT31;67742;51.972;5.682;2023-06-14T00:15:10;22.0;35.8
78448;SHT31;67742;51.972;5.682;2023-06-14T00:17:39;21.9;36.0
78448;SHT31;67742;51.972;5.682;2023-06-14T00:20:08;21.9;35.9
78448;SHT31;67742;51.972;5.682;2023-06-14T00:22:38;21.9;35.9
78448;SHT31;67742;51.972;5.682;2023-06-14T00:25:07;21.9;35.9
78448;SHT31;67742;51.972;5.682;2023-06-14T00:27:36;21.8;36.1
78448;SHT31;67742;51.972;5.682;2023-06-14T00:30:05;21.8;36.3
78448;SHT31;67742;51.972;5.682;2023-06-14T00:32:34;21.8;36.4
78448;SHT31;67742;51.972;5.682;2023-06-14T00:35:03;21.8;36.4
78448;SHT31;67742;51.972;5.682;2023-06-14T00:37:34;21.8;36.4
78448;SHT31;67742;51.972;5.682;2023-06-14T00:40:03;21.7;36.5
78448;SHT31;67742;51.972;5.682;2023-06-14T00:42:32;21.7;36.7
78448;SHT31;67742;51.972;5.682;2023-06-14T00:45:02;21.7;37.3
78448;SHT31;67742;51.972;5.682;2023-06-14T00:47:30;21.7;37.0
78448;SHT31;67742;51.972;5.682;2023-06-14T00:50:00;21.6;37.2
78448;SHT31;67742;51.972;5.682;2023-06-14T00:52:29;21.6;36.9
78448;SHT31;67742;51.972;5.682;2023-06-14T00:54:58;21.6;36.8
78448;SHT31;67742;51.972;5.682;2023-06-14T00:57:27;21.6;36.8
78448;SHT31;67742;51.972;5.682;2023-06-14T00:59:56;21.5;36.9
78448;SHT31;67742;51.972;5.682;2023-06-14T01:02:24;21.5;37.2
78448;SHT31;67742;51.972;5.682;2023-06-14T01:04:54;21.5;37.2
78448;SHT31;67742;51.972;5.682;2023-06-14T01:07:33;21.5;37.4
78448;SHT31;67742;51.972;5.682;2023-06-14T01:10:20;21.4;37.4
78448;SHT31;67742;51.972;5.682;2023-06-14T01:13:02;21.4;37.6
78448;SHT31;67742;51.972;5.682;2023-06-14T01:15:32;21.4;37.5
78448;SHT31;67742;51.972;5.682;2023-06-14T01:18:00;21.4;37.5
78448;SHT31;67742;51.972;5.682;2023-06-14T01:20:33;21.3;37.5
78448;SHT31;67742;51.972;5.682;2023-06-14T01:23:05;21.3;37.4
78448;SHT31;67742;51.972;5.682;2023-06-14T01:25:33;21.3;37.6
78448;SHT31;67742;51.972;5.682;2023-06-14T01:28:06;21.2;37.7
78448;SHT31;67742;51.972;5.682;2023-06-14T01:30:39;21.2;38.0
78448;SHT31;67742;51.972;5.682;2023-06-14T01:33:12;21.2;37.8
78448;SHT31;67742;51.972;5.682;2023-06-14T01:35:44;21.1;37.8
78448;SHT31;67742;51.972;5.682;2023-06-14T01:38:15;21.1;38.0
78448;SHT31;67742;51.972;5.682;2023-06-14T01:40:49;21.1;38.2
78448;SHT31;67742;51.972;5.682;2023-06-14T01:43:19;21.1;38.2
78448;SHT31;67742;51.972;5.682;2023-06-14T01:45:49;21.0;38.1
78448;SHT31;67742;51.972;5.682;2023-06-14T01:48:19;21.0;38.2
78448;SHT31;67742;51.972;5.682;2023-06-14T01:50:49;21.0;38.4
78448;SHT31;67742;51.972;5.682;2023-06-14T01:53:18;20.9;38.2
78448;SHT31;67742;51.972;5.682;2023-06-14T01:55:47;20.9;38.3
78448;SHT31;67742;51.972;5.682;2023-06-14T01:58:16;20.9;38.3
78448;SHT31;67742;51.972;5.682;2023-06-14T02:00:45;20.9;38.3
78448;SHT31;67742;51.972;5.682;2023-06-14T02:03:13;20.8;38.4
78448;SHT31;67742;51.972;5.682;2023-06-14T02:05:42;20.8;38.7
78448;SHT31;67742;51.972;5.682;2023-06-14T02:08:11;20.8;38.7
78448;SHT31;67742;51.972;5.682;2023-06-14T02:10:39;20.7;38.6
78448;SHT31;67742;51.972;5.682;2023-06-14T02:13:08;20.7;38.6
78448;SHT31;67742;51.972;5.682;2023-06-14T02:15:36;20.7;38.9
78448;SHT31;67742;51.972;5.682;2023-06-14T02:18:04;20.6;38.9
78448;SHT31;67742;51.972;5.682;2023-06-14T02:20:33;20.6;38.9
78448;SHT31;67742;51.972;5.682;2023-06-14T02:23:02;20.6;38.9
78448;SHT31;67742;51.972;5.682;2023-06-14T02:25:31;20.6;38.9
78448;SHT31;67742;51.972;5.682;2023-06-14T02:27:59;20.5;39.0
78448;SHT31;67742;51.972;5.682;2023-06-14T02:30:30;20.5;39.1
78448;SHT31;67742;51.972;5.682;2023-06-14T02:32:59;20.5;39.3
78448;SHT31;67742;51.972;5.682;2023-06-14T02:35:29;20.4;39.4
78448;SHT31;67742;51.972;5.682;2023-06-14T02:38:00;20.4;39.2
78448;SHT31;67742;51.972;5.682;2023-06-14T02:40:28;20.4;39.4
78448;SHT31;67742;51.972;5.682;2023-06-14T02:42:57;20.3;39.5
78448;SHT31;67742;51.972;5.682;2023-06-14T02:45:26;20.3;39.6
78448;SHT31;67742;51.972;5.682;2023-06-14T02:47:55;20.3;39.5
78448;SHT31;67742;51.972;5.682;2023-06-14T02:50:23;20.3;39.8
78448;SHT31;67742;51.972;5.682;2023-06-14T02:52:54;20.2;39.8
78448;SHT31;67742;51.972;5.682;2023-06-14T02:55:23;20.2;40.0
78448;SHT31;67742;51.972;5.682;2023-06-14T02:57:52;20.2;40.1
78448;SHT31;67742;51.972;5.682;2023-06-14T03:00:21;20.2;40.2
78448;SHT31;67742;51.972;5.682;2023-06-14T03:02:50;20.1;40.1
78448;SHT31;67742;51.972;5.682;2023-06-14T03:05:21;20.1;40.0
78448;SHT31;67742;51.972;5.682;2023-06-14T03:07:50;20.1;39.9
78448;SHT31;67742;51.972;5.682;2023-06-14T03:10:20;20.1;40.3
78448;SHT31;67742;51.972;5.682;2023-06-14T03:12:49;20.0;40.2
78448;SHT31;67742;51.972;5.682;2023-06-14T03:15:18;20.0;40.2
78448;SHT31;67742;51.972;5.682;2023-06-14T03:17:48;20.0;40.2
78448;SHT31;67742;51.972;5.682;2023-06-14T03:20:17;19.9;40.3
78448;SHT31;67742;51.972;5.682;2023-06-14T03:22:45;19.9;40.5
78448;SHT31;67742;51.972;5.682;2023-06-14T03:25:14;19.9;40.5
78448;SHT31;67742;51.972;5.682;2023-06-14T03:27:43;19.8;40.6
78448;SHT31;67742;51.972;5.682;2023-06-14T03:30:13;19.8;40.9
78448;SHT31;67742;51.972;5.682;2023-06-14T03:32:42;19.8;40.8
78448;SHT31;67742;51.972;5.682;2023-06-14T03:35:11;19.8;41.0
78448;SHT31;67742;51.972;5.682;2023-06-14T03:37:44;19.7;41.0
78448;SHT31;67742;51.972;5.682;2023-06-14T03:40:17;19.7;41.3
78448;SHT31;67742;51.972;5.682;2023-06-14T03:42:47;19.7;41.2
78448;SHT31;67742;51.972;5.682;2023-06-14T03:45:15;19.6;41.4
78448;SHT31;67742;51.972;5.682;2023-06-14T03:47:44;19.6;41.4
78448;SHT31;67742;51.972;5.682;2023-06-14T03:50:13;19.6;41.6
78448;SHT31;67742;51.972;5.682;2023-06-14T03:52:43;19.5;41.7
78448;SHT31;67742;51.972;5.682;2023-06-14T03:55:14;19.5;41.8
78448;SHT31;67742;51.972;5.682;2023-06-14T03:57:43;19.5;41.8
78448;SHT31;67742;51.972;5.682;2023-06-14T04:00:13;19.4;41.9
78448;SHT31;67742;51.972;5.682;2023-06-14T04:02:42;19.4;42.1
78448;SHT31;67742;51.972;5.682;2023-06-14T04:05:11;19.4;42.3
78448;SHT31;67742;51.972;5.682;2023-06-14T04:07:39;19.4;42.4
78448;SHT31;67742;51.972;5.682;2023-06-14T04:10:12;19.4;42.3
78448;SHT31;67742;51.972;5.682;2023-06-14T04:12:42;19.3;42.5
78448;SHT31;67742;51.972;5.682;2023-06-14T04:15:11;19.3;42.7
78448;SHT31;67742;51.972;5.682;2023-06-14T04:17:40;19.3;42.8
78448;SHT31;67742;51.972;5.682;2023-06-14T04:20:10;19.3;42.8
78448;SHT31;67742;51.972;5.682;2023-06-14T04:22:38;19.3;42.8
78448;SHT31;67742;51.972;5.682;2023-06-14T04:25:08;19.3;42.9
78448;SHT31;67742;51.972;5.682;2023-06-14T04:27:38;19.3;43.2
78448;SHT31;67742;51.972;5.682;2023-06-14T04:30:11;19.3;43.3
78448;SHT31;67742;51.972;5.682;2023-06-14T04:32:40;19.2;43.3
78448;SHT31;67742;51.972;5.682;2023-06-14T04:35:09;19.2;43.5
78448;SHT31;67742;51.972;5.682;2023-06-14T04:37:38;19.2;43.6
78448;SHT31;67742;51.972;5.682;2023-06-14T04:40:11;19.2;43.4
78448;SHT31;67742;51.972;5.682;2023-06-14T04:42:39;19.2;43.5
78448;SHT31;67742;51.972;5.682;2023-06-14T04:45:11;19.2;43.5
78448;SHT31;67742;51.972;5.682;2023-06-14T04:47:41;19.2;43.8
78448;SHT31;67742;51.972;5.682;2023-06-14T04:50:11;19.2;43.7
78448;SHT31;67742;51.972;5.682;2023-06-14T04:52:39;19.2;43.7
78448;SHT31;67742;51.972;5.682;2023-06-14T04:55:09;19.2;43.7
78448;SHT31;67742;51.972;5.682;2023-06-14T04:57:38;19.3;43.8
78448;SHT31;67742;51.972;5.682;2023-06-14T05:00:09;19.3;44.0
78448;SHT31;67742;51.972;5.682;2023-06-14T05:02:39;19.3;43.9
78448;SHT31;67742;51.972;5.682;2023-06-14T05:05:09;19.3;44.0
78448;SHT31;67742;51.972;5.682;2023-06-14T05:07:37;19.3;43.8
78448;SHT31;67742;51.972;5.682;2023-06-14T05:10:08;19.3;44.0
78448;SHT31;67742;51.972;5.682;2023-06-14T05:12:37;19.3;44.2
78448;SHT31;67742;51.972;5.682;2023-06-14T05:15:10;19.3;44.1
78448;SHT31;67742;51.972;5.682;2023-06-14T05:17:40;19.4;44.5
78448;SHT31;67742;51.972;5.682;2023-06-14T05:20:12;19.4;44.4
78448;SHT31;67742;51.972;5.682;2023-06-14T05:22:43;19.4;44.1
78448;SHT31;67742;51.972;5.682;2023-06-14T05:25:11;19.4;44.0
78448;SHT31;67742;51.972;5.682;2023-06-14T05:27:40;19.5;44.3
78448;SHT31;67742;51.972;5.682;2023-06-14T05:30:10;19.5;44.4
78448;SHT31;67742;51.972;5.682;2023-06-14T05:32:39;19.5;44.4
78448;SHT31;67742;51.972;5.682;2023-06-14T05:35:09;19.5;44.6
78448;SHT31;67742;51.972;5.682;2023-06-14T05:37:37;19.6;44.8
78448;SHT31;67742;51.972;5.682;2023-06-14T05:40:08;19.6;45.1
78448;SHT31;67742;51.972;5.682;2023-06-14T05:42:37;19.6;45.8
78448;SHT31;67742;51.972;5.682;2023-06-14T05:45:07;19.6;46.2
78448;SHT31;67742;51.972;5.682;2023-06-14T05:47:38;19.7;47.5
78448;SHT31;67742;51.972;5.682;2023-06-14T05:50:10;19.7;46.7
78448;SHT31;67742;51.972;5.682;2023-06-14T05:52:39;19.7;47.3
78448;SHT31;67742;51.972;5.682;2023-06-14T05:55:08;19.8;46.1
78448;SHT31;67742;51.972;5.682;2023-06-14T05:57:40;19.8;46.0
78448;SHT31;67742;51.972;5.682;2023-06-14T06:00:10;19.8;45.8
78448;SHT31;67742;51.972;5.682;2023-06-14T06:02:41;19.9;44.5
78448;SHT31;67742;51.972;5.682;2023-06-14T06:05:10;19.9;44.1
78448;SHT31;67742;51.972;5.682;2023-06-14T06:07:39;20.0;44.0
78448;SHT31;67742;51.972;5.682;2023-06-14T06:10:09;20.0;44.6
78448;SHT31;67742;51.972;5.682;2023-06-14T06:12:38;20.0;44.6
78448;SHT31;67742;51.972;5.682;2023-06-14T06:15:07;20.1;43.7
78448;SHT31;67742;51.972;5.682;2023-06-14T06:17:38;20.1;43.3
78448;SHT31;67742;51.972;5.682;2023-06-14T06:20:09;20.2;43.7
78448;SHT31;67742;51.972;5.682;2023-06-14T06:22:38;20.2;43.9
78448;SHT31;67742;51.972;5.682;2023-06-14T06:25:07;20.3;43.6
78448;SHT31;67742;51.972;5.682;2023-06-14T06:27:37;20.3;43.3
78448;SHT31;67742;51.972;5.682;2023-06-14T06:30:08;20.4;43.0
78448;SHT31;67742;51.972;5.682;2023-06-14T06:32:37;20.4;44.5
78448;SHT31;67742;51.972;5.682;2023-06-14T06:35:06;20.4;43.6
78448;SHT31;67742;51.972;5.682;2023-06-14T06:37:37;20.5;43.7
78448;SHT31;67742;51.972;5.682;2023-06-14T06:40:07;20.5;43.3
78448;SHT31;67742;51.972;5.682;2023-06-14T06:42:36;20.6;43.3
78448;SHT31;67742;51.972;5.682;2023-06-14T06:45:06;20.6;43.0
78448;SHT31;67742;51.972;5.682;2023-06-14T06:47:35;20.7;43.2
78448;SHT31;67742;51.972;5.682;2023-06-14T06:50:04;20.7;43.4
78448;SHT31;67742;51.972;5.682;2023-06-14T06:52:34;20.8;43.4
78448;SHT31;67742;51.972;5.682;2023-06-14T06:55:03;20.8;43.7
78448;SHT31;67742;51.972;5.682;2023-06-14T06:57:31;20.9;43.3
78448;SHT31;67742;51.972;5.682;2023-06-14T07:00:00;21.0;42.7
78448;SHT31;67742;51.972;5.682;2023-06-14T07:02:29;21.0;42.4
78448;SHT31;67742;51.972;5.682;2023-06-14T07:04:57;21.1;42.3
78448;SHT31;67742;51.972;5.682;2023-06-14T07:07:26;21.1;42.2
78448;SHT31;67742;51.972;5.682;2023-06-14T07:09:54;21.2;42.0
78448;SHT31;67742;51.972;5.682;2023-06-14T07:12:23;21.2;42.3
78448;SHT31;67742;51.972;5.682;2023-06-14T07:14:52;21.3;42.2
78448;SHT31;67742;51.972;5.682;2023-06-14T07:17:21;21.4;41.5
78448;SHT31;67742;51.972;5.682;2023-06-14T07:19:49;21.4;41.6
78448;SHT31;67742;51.972;5.682;2023-06-14T07:22:19;21.5;41.8
78448;SHT31;67742;51.972;5.682;2023-06-14T07:24:48;21.5;41.1
78448;SHT31;67742;51.972;5.682;2023-06-14T07:27:17;21.6;41.2
78448;SHT31;67742;51.972;5.682;2023-06-14T07:29:46;21.7;41.3
78448;SHT31;67742;51.972;5.682;2023-06-14T07:32:15;21.8;41.5
78448;SHT31;67742;51.972;5.682;2023-06-14T07:34:43;21.8;41.1
78448;SHT31;67742;51.972;5.682;2023-06-14T07:37:11;21.9;40.8
78448;SHT31;67742;51.972;5.682;2023-06-14T07:39:40;22.0;40.6
78448;SHT31;67742;51.972;5.682;2023-06-14T07:42:09;22.1;40.4
78448;SHT31;67742;51.972;5.682;2023-06-14T07:44:38;22.2;40.5
78448;SHT31;67742;51.972;5.682;2023-06-14T07:47:07;22.3;40.2
78448;SHT31;67742;51.972;5.682;2023-06-14T07:49:36;22.4;40.8
78448;SHT31;67742;51.972;5.682;2023-06-14T07:52:05;22.6;40.7
78448;SHT31;67742;51.972;5.682;2023-06-14T07:54:34;22.7;39.4
78448;SHT31;67742;51.972;5.682;2023-06-14T07:57:02;22.9;39.5
78448;SHT31;67742;51.972;5.682;2023-06-14T07:59:34;23.0;38.4
78448;SHT31;67742;51.972;5.682;2023-06-14T08:02:03;23.2;38.5
78448;SHT31;67742;51.972;5.682;2023-06-14T08:04:32;23.4;38.9
78448;SHT31;67742;51.972;5.682;2023-06-14T08:07:01;23.5;38.9
78448;SHT31;67742;51.972;5.682;2023-06-14T08:09:29;23.7;39.2
78448;SHT31;67742;51.972;5.682;2023-06-14T08:11:58;23.9;37.8
78448;SHT31;67742;51.972;5.682;2023-06-14T08:14:29;24.1;36.5
78448;SHT31;67742;51.972;5.682;2023-06-14T08:16:58;24.2;36.3
78448;SHT31;67742;51.972;5.682;2023-06-14T08:19:26;24.4;35.7
78448;SHT31;67742;51.972;5.682;2023-06-14T08:21:54;24.5;34.5
78448;SHT31;67742;51.972;5.682;2023-06-14T08:24:24;24.7;34.4
78448;SHT31;67742;51.972;5.682;2023-06-14T08:26:55;24.8;34.5
78448;SHT31;67742;51.972;5.682;2023-06-14T08:29:27;25.0;34.0
78448;SHT31;67742;51.972;5.682;2023-06-14T08:31:57;25.1;32.6
78448;SHT31;67742;51.972;5.682;2023-06-14T08:34:26;25.2;33.2
78448;SHT31;67742;51.972;5.682;2023-06-14T08:36:55;25.3;32.9
78448;SHT31;67742;51.972;5.682;2023-06-14T08:39:24;25.4;32.6
78448;SHT31;67742;51.972;5.682;2023-06-14T08:41:53;25.5;33.0
78448;SHT31;67742;51.972;5.682;2023-06-14T08:44:23;25.6;32.7
78448;SHT31;67742;51.972;5.682;2023-06-14T08:46:56;25.6;32.2
78448;SHT31;67742;51.972;5.682;2023-06-14T08:49:26;25.7;31.8
78448;SHT31;67742;51.972;5.682;2023-06-14T08:51:58;25.7;31.7
78448;SHT31;67742;51.972;5.682;2023-06-14T08:54:28;25.8;31.3
78448;SHT31;67742;51.972;5.682;2023-06-14T08:57:01;25.8;31.2
78448;SHT31;67742;51.972;5.682;2023-06-14T08:59:34;25.8;30.4
78448;SHT31;67742;51.972;5.682;2023-06-14T09:02:06;25.8;30.6
78448;SHT31;67742;51.972;5.682;2023-06-14T09:04:39;25.9;30.9
78448;SHT31;67742;51.972;5.682;2023-06-14T09:07:08;25.9;30.6
78448;SHT31;67742;51.972;5.682;2023-06-14T09:09:41;25.9;30.4
78448;SHT31;67742;51.972;5.682;2023-06-14T09:12:11;25.9;30.2
78448;SHT31;67742;51.972;5.682;2023-06-14T09:14:40;25.9;29.9
78448;SHT31;67742;51.972;5.682;2023-06-14T09:17:08;25.9;30.7
78448;SHT31;67742;51.972;5.682;2023-06-14T09:19:41;25.9;30.5
78448;SHT31;67742;51.972;5.682;2023-06-14T09:22:11;25.9;30.9
78448;SHT31;67742;51.972;5.682;2023-06-14T09:24:41;25.9;32.0
78448;SHT31;67742;51.972;5.682;2023-06-14T09:27:14;25.9;31.0
78448;SHT31;67742;51.972;5.682;2023-06-14T09:29:43;25.9;30.3
78448;SHT31;67742;51.972;5.682;2023-06-14T09:32:11;26.0;30.1
78448;SHT31;67742;51.972;5.682;2023-06-14T09:34:40;26.0;29.5
78448;SHT31;67742;51.972;5.682;2023-06-14T09:37:09;26.1;30.3
78448;SHT31;67742;51.972;5.682;2023-06-14T09:39:50;26.1;30.4
78448;SHT31;67742;51.972;5.682;2023-06-14T09:42:20;26.2;30.3
78448;SHT31;67742;51.972;5.682;2023-06-14T09:44:49;26.4;29.8
78448;SHT31;67742;51.972;5.682;2023-06-14T09:47:19;26.5;29.5
78448;SHT31;67742;51.972;5.682;2023-06-14T09:49:49;26.6;29.9
78448;SHT31;67742;51.972;5.682;2023-06-14T09:52:19;26.8;29.6
78448;SHT31;67742;51.972;5.682;2023-06-14T09:54:48;26.9;28.6
78448;SHT31;67742;51.972;5.682;2023-06-14T09:57:21;27.1;29.2
78448;SHT31;67742;51.972;5.682;2023-06-14T09:59:53;27.3;28.5
78448;SHT31;67742;51.972;5.682;2023-06-14T10:02:25;27.5;28.1
78448;SHT31;67742;51.972;5.682;2023-06-14T10:05:02;27.6;28.4
78448;SHT31;67742;51.972;5.682;2023-06-14T10:07:40;27.8;28.2
78448;SHT31;67742;51.972;5.682;2023-06-14T10:10:11;28.0;28.9
78448;SHT31;67742;51.972;5.682;2023-06-14T10:12:40;28.1;27.7
78448;SHT31;67742;51.972;5.682;2023-06-14T10:15:15;28.3;28.6
78448;SHT31;67742;51.972;5.682;2023-06-14T10:17:50;28.5;28.5
78448;SHT31;67742;51.972;5.682;2023-06-14T10:20:28;28.7;28.1
78448;SHT31;67742;51.972;5.682;2023-06-14T10:23:05;28.9;27.8
78448;SHT31;67742;51.972;5.682;2023-06-14T10:25:35;29.1;28.1
78448;SHT31;67742;51.972;5.682;2023-06-14T10:28:18;29.3;28.0
78448;SHT31;67742;51.972;5.682;2023-06-14T10:31:04;29.5;27.2
78448;SHT31;67742;51.972;5.682;2023-06-14T10:33:34;29.7;27.5
78448;SHT31;67742;51.972;5.682;2023-06-14T10:36:10;29.8;27.6
78448;SHT31;67742;51.972;5.682;2023-06-14T10:38:44;30.0;26.9
78448;SHT31;67742;51.972;5.682;2023-06-14T10:41:13;30.1;26.5
78448;SHT31;67742;51.972;5.682;2023-06-14T10:43:43;30.3;27.6
78448;SHT31;67742;51.972;5.682;2023-06-14T10:46:21;30.4;27.7
78448;SHT31;67742;51.972;5.682;2023-06-14T10:48:57;30.6;26.6
78448;SHT31;67742;51.972;5.682;2023-06-14T10:51:37;30.7;26.0
78448;SHT31;67742;51.972;5.682;2023-06-14T10:54:12;30.9;26.1
78448;SHT31;67742;51.972;5.682;2023-06-14T10:56:47;31.0;25.1
78448;SHT31;67742;51.972;5.682;2023-06-14T10:59:16;31.2;25.4
78448;SHT31;67742;51.972;5.682;2023-06-14T11:01:56;31.3;25.1
78448;SHT31;67742;51.972;5.682;2023-06-14T11:04:34;31.4;25.0
78448;SHT31;67742;51.972;5.682;2023-06-14T11:07:19;31.5;25.0
78448;SHT31;67742;51.972;5.682;2023-06-14T11:10:05;31.6;25.5
78448;SHT31;67742;51.972;5.682;2023-06-14T11:12:39;31.7;24.7
78448;SHT31;67742;51.972;5.682;2023-06-14T11:15:11;31.8;24.9
78448;SHT31;67742;51.972;5.682;2023-06-14T11:17:39;32.0;25.7
78448;SHT31;67742;51.972;5.682;2023-06-14T11:20:14;32.1;25.2
78448;SHT31;67742;51.972;5.682;2023-06-14T11:22:44;32.2;24.5
78448;SHT31;67742;51.972;5.682;2023-06-14T11:25:13;32.4;24.3
78448;SHT31;67742;51.972;5.682;2023-06-14T11:27:43;32.5;23.5
78448;SHT31;67742;51.972;5.682;2023-06-14T11:30:13;32.6;23.5
78448;SHT31;67742;51.972;5.682;2023-06-14T11:32:45;32.7;23.3
78448;SHT31;67742;51.972;5.682;2023-06-14T11:35:18;32.8;23.7
78448;SHT31;67742;51.972;5.682;2023-06-14T11:37:46;32.8;23.8
78448;SHT31;67742;51.972;5.682;2023-06-14T11:40:16;32.9;22.7
78448;SHT31;67742;51.972;5.682;2023-06-14T11:42:44;33.0;22.7
78448;SHT31;67742;51.972;5.682;2023-06-14T11:45:13;33.0;22.8
78448;SHT31;67742;51.972;5.682;2023-06-14T11:47:41;33.1;22.4
78448;SHT31;67742;51.972;5.682;2023-06-14T11:50:10;33.2;23.0
78448;SHT31;67742;51.972;5.682;2023-06-14T11:52:39;33.2;22.0
78448;SHT31;67742;51.972;5.682;2023-06-14T11:55:08;33.3;22.0
78448;SHT31;67742;51.972;5.682;2023-06-14T11:57:37;33.3;22.7
78448;SHT31;67742;51.972;5.682;2023-06-14T12:00:07;33.4;22.4
78448;SHT31;67742;51.972;5.682;2023-06-14T12:02:38;33.5;22.6
78448;SHT31;67742;51.972;5.682;2023-06-14T12:05:09;33.6;22.7
78448;SHT31;67742;51.972;5.682;2023-06-14T12:07:38;33.6;22.0
78448;SHT31;67742;51.972;5.682;2023-06-14T12:10:09;33.7;22.0
78448;SHT31;67742;51.972;5.682;2023-06-14T12:12:40;33.7;22.5
78448;SHT31;67742;51.972;5.682;2023-06-14T12:15:10;33.7;22.5
78448;SHT31;67742;51.972;5.682;2023-06-14T12:17:40;33.8;22.7
78448;SHT31;67742;51.972;5.682;2023-06-14T12:20:12;33.8;21.8
78448;SHT31;67742;51.972;5.682;2023-06-14T12:22:51;33.8;22.8
78448;SHT31;67742;51.972;5.682;2023-06-14T12:25:29;33.8;23.5
78448;SHT31;67742;51.972;5.682;2023-06-14T12:28:05;33.8;23.5
78448;SHT31;67742;51.972;5.682;2023-06-14T12:30:36;33.8;23.2
78448;SHT31;67742;51.972;5.682;2023-06-14T12:33:05;33.8;22.3
78448;SHT31;67742;51.972;5.682;2023-06-14T12:35:34;33.8;22.7
78448;SHT31;67742;51.972;5.682;2023-06-14T12:38:05;33.8;22.0
78448;SHT31;67742;51.972;5.682;2023-06-14T12:40:34;33.8;22.8
78448;SHT31;67742;51.972;5.682;2023-06-14T12:43:04;33.8;23.0
78448;SHT31;67742;51.972;5.682;2023-06-14T12:45:32;33.8;22.4
78448;SHT31;67742;51.972;5.682;2023-06-14T12:48:01;33.8;22.1
78448;SHT31;67742;51.972;5.682;2023-06-14T12:50:30;33.8;22.6
78448;SHT31;67742;51.972;5.682;2023-06-14T12:52:59;33.9;23.1
78448;SHT31;67742;51.972;5.682;2023-06-14T12:55:27;33.9;21.8
78448;SHT31;67742;51.972;5.682;2023-06-14T12:57:55;34.0;22.0
78448;SHT31;67742;51.972;5.682;2023-06-14T13:00:24;34.0;22.0
78448;SHT31;67742;51.972;5.682;2023-06-14T13:02:54;34.0;22.8
78448;SHT31;67742;51.972;5.682;2023-06-14T13:05:23;34.0;22.9
78448;SHT31;67742;51.972;5.682;2023-06-14T13:07:51;34.0;22.9
78448;SHT31;67742;51.972;5.682;2023-06-14T13:10:20;34.1;23.5
78448;SHT31;67742;51.972;5.682;2023-06-14T13:12:49;34.2;23.5
78448;SHT31;67742;51.972;5.682;2023-06-14T13:15:17;34.2;22.6
78448;SHT31;67742;51.972;5.682;2023-06-14T13:17:46;34.3;23.0
78448;SHT31;67742;51.972;5.682;2023-06-14T13:20:15;34.4;22.7
78448;SHT31;67742;51.972;5.682;2023-06-14T13:22:44;34.4;22.6
78448;SHT31;67742;51.972;5.682;2023-06-14T13:25:13;34.5;22.3
78448;SHT31;67742;51.972;5.682;2023-06-14T13:27:41;34.6;22.6
78448;SHT31;67742;51.972;5.682;2023-06-14T13:30:11;34.6;22.9
78448;SHT31;67742;51.972;5.682;2023-06-14T13:32:39;34.7;22.4
78448;SHT31;67742;51.972;5.682;2023-06-14T13:35:08;34.7;22.4
78448;SHT31;67742;51.972;5.682;2023-06-14T13:37:37;34.8;21.7
78448;SHT31;67742;51.972;5.682;2023-06-14T13:40:07;34.8;21.7
78448;SHT31;67742;51.972;5.682;2023-06-14T13:42:36;34.8;21.7
78448;SHT31;67742;51.972;5.682;2023-06-14T13:45:06;34.8;21.9
78448;SHT31;67742;51.972;5.682;2023-06-14T13:47:34;34.8;21.5
78448;SHT31;67742;51.972;5.682;2023-06-14T13:50:04;34.8;21.3
78448;SHT31;67742;51.972;5.682;2023-06-14T13:52:33;34.7;21.5
78448;SHT31;67742;51.972;5.682;2023-06-14T13:55:03;34.7;21.4
78448;SHT31;67742;51.972;5.682;2023-06-14T13:57:32;34.7;21.3
78448;SHT31;67742;51.972;5.682;2023-06-14T14:00:00;34.6;21.2
78448;SHT31;67742;51.972;5.682;2023-06-14T14:02:29;34.6;20.9
78448;SHT31;67742;51.972;5.682;2023-06-14T14:05:00;34.6;21.4
78448;SHT31;67742;51.972;5.682;2023-06-14T14:07:29;34.6;22.1
78448;SHT31;67742;51.972;5.682;2023-06-14T14:09:59;34.6;21.9
78448;SHT31;67742;51.972;5.682;2023-06-14T14:12:27;34.6;22.1
78448;SHT31;67742;51.972;5.682;2023-06-14T14:14:56;34.6;21.9
78448;SHT31;67742;51.972;5.682;2023-06-14T14:17:24;34.6;20.7
78448;SHT31;67742;51.972;5.682;2023-06-14T14:19:53;34.6;20.4
78448;SHT31;67742;51.972;5.682;2023-06-14T14:22:22;34.5;20.9
78448;SHT31;67742;51.972;5.682;2023-06-14T14:24:50;34.4;21.5
78448;SHT31;67742;51.972;5.682;2023-06-14T14:27:19;34.3;21.0
78448;SHT31;67742;51.972;5.682;2023-06-14T14:29:47;34.2;22.0
78448;SHT31;67742;51.972;5.682;2023-06-14T14:32:16;34.2;21.7
78448;SHT31;67742;51.972;5.682;2023-06-14T14:34:46;34.1;22.4
78448;SHT31;67742;51.972;5.682;2023-06-14T14:37:14;34.1;22.2
78448;SHT31;67742;51.972;5.682;2023-06-14T14:39:44;34.2;21.7
78448;SHT31;67742;51.972;5.682;2023-06-14T14:42:14;34.2;22.2
78448;SHT31;67742;51.972;5.682;2023-06-14T14:44:42;34.2;21.8
78448;SHT31;67742;51.972;5.682;2023-06-14T14:47:11;34.3;22.6
78448;SHT31;67742;51.972;5.682;2023-06-14T14:49:41;34.3;21.6
78448;SHT31;67742;51.972;5.682;2023-06-14T14:52:10;34.3;21.3
78448;SHT31;67742;51.972;5.682;2023-06-14T14:54:39;34.4;21.7
78448;SHT31;67742;51.972;5.682;2023-06-14T14:57:08;34.4;22.0
78448;SHT31;67742;51.972;5.682;2023-06-14T14:59:37;34.4;22.4
78448;SHT31;67742;51.972;5.682;2023-06-14T15:02:06;34.4;21.3
78448;SHT31;67742;51.972;5.682;2023-06-14T15:04:35;34.5;21.3
78448;SHT31;67742;51.972;5.682;2023-06-14T15:07:03;34.5;21.3
78448;SHT31;67742;51.972;5.682;2023-06-14T15:09:32;34.5;21.1
78448;SHT31;67742;51.972;5.682;2023-06-14T15:12:01;34.5;21.0
78448;SHT31;67742;51.972;5.682;2023-06-14T15:14:29;34.5;20.8
78448;SHT31;67742;51.972;5.682;2023-06-14T15:16:58;34.5;21.3
78448;SHT31;67742;51.972;5.682;2023-06-14T15:19:28;34.5;20.8
78448;SHT31;67742;51.972;5.682;2023-06-14T15:21:56;34.5;20.2
78448;SHT31;67742;51.972;5.682;2023-06-14T15:24:25;34.5;20.4
78448;SHT31;67742;51.972;5.682;2023-06-14T15:26:53;34.5;20.8
78448;SHT31;67742;51.972;5.682;2023-06-14T15:29:22;34.5;21.2
78448;SHT31;67742;51.972;5.682;2023-06-14T15:31:50;34.5;20.7
78448;SHT31;67742;51.972;5.682;2023-06-14T15:34:21;34.4;21.1
78448;SHT31;67742;51.972;5.682;2023-06-14T15:36:49;34.4;21.2
78448;SHT31;67742;51.972;5.682;2023-06-14T15:39:18;34.3;21.4
78448;SHT31;67742;51.972;5.682;2023-06-14T15:41:46;34.3;20.7
78448;SHT31;67742;51.972;5.682;2023-06-14T15:44:15;34.2;21.2
78448;SHT31;67742;51.972;5.682;2023-06-14T15:46:46;34.2;20.9
78448;SHT31;67742;51.972;5.682;2023-06-14T15:49:14;34.1;20.6
78448;SHT31;67742;51.972;5.682;2023-06-14T15:51:43;34.1;21.1
78448;SHT31;67742;51.972;5.682;2023-06-14T15:54:11;34.0;21.2
78448;SHT31;67742;51.972;5.682;2023-06-14T15:56:39;33.9;21.4
78448;SHT31;67742;51.972;5.682;2023-06-14T15:59:08;33.8;21.4
78448;SHT31;67742;51.972;5.682;2023-06-14T16:01:39;33.7;21.4
78448;SHT31;67742;51.972;5.682;2023-06-14T16:04:07;33.6;21.4
78448;SHT31;67742;51.972;5.682;2023-06-14T16:06:37;33.5;21.5
78448;SHT31;67742;51.972;5.682;2023-06-14T16:09:08;33.3;21.4
78448;SHT31;67742;51.972;5.682;2023-06-14T16:11:36;33.1;22.0
78448;SHT31;67742;51.972;5.682;2023-06-14T16:14:05;33.0;22.0
78448;SHT31;67742;51.972;5.682;2023-06-14T16:16:33;32.8;22.3
78448;SHT31;67742;51.972;5.682;2023-06-14T16:19:02;32.7;22.5